Time;durP1;ratioP1;P1;durP2;ratioP2;P2;SDS_P1;SDS_P2;PMS_P1;PMS_P2;Temp;Humidity;BMP_temperature;BMP_pressure;BME280_temperature;BME280_humidity;BME280_pressure;Samples;Min_cycle;Max_cycle;Signal;HPM_P1;HPM_P2
2023/10/15 00:01:32;;;;;;;4.50;1.33;;;9.60;99.90;;;;;;5069550;28;20446;-72
2023/10/15 00:03:58;;;;;;;9.10;1.60;;;9.60;99.90;;;;;;5067942;28;20206;-72
2023/10/15 00:06:24;;;;;;;4.10;1.37;;;9.50;99.90;;;;;;5069269;28;20737;-72
2023/10/15 00:08:50;;;;;;;6.67;1.23;;;9.60;99.90;;;;;;5069391;28;20185;-72
2023/10/15 00:11:18;;;;;;;5.33;1.10;;;9.60;99.90;;;;;;5069261;28;20181;-72
2023/10/15 00:13:44;;;;;;;3.17;1.00;;;9.60;99.90;;;;;;5069075;28;20420;-72
2023/10/15 00:16:20;;;;;;;6.30;1.43;;;9.60;99.90;;;;;;5068906;28;20457;-72
2023/10/15 00:18:45;;;;;;;1.90;1.10;;;9.60;99.90;;;;;;5067468;28;20427;-72
2023/10/15 00:21:14;;;;;;;3.67;0.97;;;9.60;99.90;;;;;;5068943;28;20442;-72
2023/10/15 00:23:46;;;;;;;8.77;1.50;;;9.60;99.90;;;;;;5067623;28;20190;-71
2023/10/15 00:26:12;;;;;;;3.57;1.37;;;9.60;99.90;;;;;;5067348;28;20470;-72
2023/10/15 00:28:39;;;;;;;5.63;1.40;;;9.70;99.90;;;;;;5068553;28;20437;-72
2023/10/15 00:31:09;;;;;;;6.83;1.60;;;9.60;99.90;;;;;;5068599;28;20506;-72
2023/10/15 00:33:37;;;;;;;4.40;1.10;;;9.70;99.90;;;;;;5067171;28;20804;-72
2023/10/15 00:36:06;;;;;;;6.83;1.20;;;9.70;99.90;;;;;;5066853;28;20452;-72
2023/10/15 00:38:32;;;;;;;3.63;1.20;;;9.70;99.90;;;;;;5068547;28;20505;-72
2023/10/15 00:41:07;;;;;;;8.23;1.47;;;9.70;99.90;;;;;;5067019;28;20472;-71
2023/10/15 00:43:33;;;;;;;6.43;1.97;;;9.80;99.90;;;;;;5068672;28;20435;-72
2023/10/15 00:46:03;;;;;;;8.00;1.87;;;9.80;99.90;;;;;;5068239;28;21100;-73
2023/10/15 00:48:36;;;;;;;8.93;1.63;;;9.80;99.90;;;;;;5067950;28;20655;-72
2023/10/15 00:51:13;;;;;;;7.23;1.63;;;9.80;99.90;;;;;;5068002;28;21059;-73
2023/10/15 00:53:50;;;;;;;3.87;1.60;;;9.90;99.90;;;;;;5067044;28;20407;-73
2023/10/15 00:56:19;;;;;;;6.50;1.30;;;9.90;99.90;;;;;;5066541;28;20999;-71
2023/10/15 00:58:54;;;;;;;8.83;1.70;;;9.80;99.90;;;;;;5070570;28;20431;-72
2023/10/15 01:01:22;;;;;;;9.10;1.60;;;9.80;99.90;;;;;;5072162;28;20508;-72
2023/10/15 01:03:55;;;;;;;6.13;1.80;;;9.90;99.90;;;;;;5072303;28;20972;-72
2023/10/15 01:06:35;;;;;;;8.20;1.47;;;9.90;99.90;;;;;;5070528;28;20604;-72
2023/10/15 01:11:44;;;;;;;9.97;1.60;;;9.90;99.90;;;;;;5072165;28;20941;-72
2023/10/15 01:14:11;;;;;;;4.80;1.40;;;10.00;99.90;;;;;;5072222;28;20419;-72
2023/10/15 01:16:38;;;;;;;6.33;1.40;;;9.90;99.90;;;;;;5072047;28;20470;-73
2023/10/15 01:21:59;;;;;;;6.73;1.70;;;9.90;99.90;;;;;;5072021;28;20452;-73
2023/10/15 01:24:26;;;;;;;8.10;1.30;;;10.00;99.90;;;;;;5070851;28;20446;-72
2023/10/15 01:27:11;;;;;;;9.30;2.70;;;10.00;99.90;;;;;;5070379;28;20467;-72
2023/10/15 01:29:40;;;;;;;4.40;1.53;;;9.90;99.90;;;;;;5070872;28;20463;-73
2023/10/15 01:32:18;;;;;;;6.90;1.10;;;10.00;99.90;;;;;;5070995;28;20428;-72
2023/10/15 01:34:45;;;;;;;2.87;1.10;;;10.10;99.90;;;;;;5072435;28;20419;-72
2023/10/15 01:39:49;;;;;;;7.43;1.50;;;10.10;99.90;;;;;;5072443;28;20444;-72
2023/10/15 01:44:57;;;;;;;7.00;1.77;;;10.10;99.90;;;;;;5072087;28;20459;-72
2023/10/15 01:47:28;;;;;;;9.17;2.47;;;10.10;99.90;;;;;;5070575;28;20484;-72
2023/10/15 01:49:56;;;;;;;3.57;1.10;;;10.20;99.90;;;;;;5071028;28;20437;-72
2023/10/15 01:52:39;;;;;;;3.33;1.20;;;10.10;99.90;;;;;;5072313;28;20430;-72
2023/10/15 01:55:06;;;;;;;7.60;1.40;;;10.10;99.90;;;;;;5072212;28;20647;-72
2023/10/15 01:57:32;;;;;;;15.50;1.70;;;10.10;99.90;;;;;;5071859;28;20811;-72
2023/10/15 02:00:14;;;;;;;7.53;1.50;;;10.10;99.90;;;;;;5070457;28;20437;-72
2023/10/15 02:02:43;;;;;;;4.20;1.20;;;10.10;99.90;;;;;;5072227;28;20875;-72
2023/10/15 02:05:41;;;;;;;3.70;1.00;;;10.10;99.90;;;;;;5070468;28;20483;-72
2023/10/15 02:08:23;;;;;;;13.37;1.40;;;10.10;99.90;;;;;;5071286;28;20489;-72
2023/10/15 02:10:49;;;;;;;2.40;1.07;;;10.10;99.90;;;;;;5071972;28;20473;-72
2023/10/15 02:13:20;;;;;;;4.50;1.60;;;10.10;99.90;;;;;;5070248;28;20423;-72
2023/10/15 02:15:46;;;;;;;8.10;1.50;;;10.10;99.90;;;;;;5071483;28;20807;-73
2023/10/15 02:18:17;;;;;;;7.60;1.37;;;10.00;99.90;;;;;;5069830;28;20435;-72
2023/10/15 02:23:10;;;;;;;3.07;1.07;;;10.20;99.90;;;;;;5071315;28;20419;-72
2023/10/15 02:25:41;;;;;;;11.13;1.33;;;10.20;99.90;;;;;;5071189;28;20973;-72
2023/10/15 02:28:09;;;;;;;6.77;1.80;;;10.20;99.90;;;;;;5069979;28;20428;-73
2023/10/15 02:30:35;;;;;;;2.47;0.90;;;10.20;99.90;;;;;;5069975;28;20458;-73
2023/10/15 02:33:01;;;;;;;5.00;1.77;;;10.20;99.90;;;;;;5071123;28;20451;-72
2023/10/15 02:35:32;;;;;;;6.73;1.77;;;10.20;99.90;;;;;;5071085;28;20428;-72
2023/10/15 02:37:59;;;;;;;11.67;1.47;;;10.20;99.90;;;;;;5070878;28;20243;-72
2023/10/15 02:40:35;;;;;;;4.60;1.30;;;10.20;99.90;;;;;;5052843;28;20428;-73
2023/10/15 02:43:06;;;;;;;7.13;1.20;;;10.10;99.90;;;;;;5070887;28;21278;-72
2023/10/15 02:45:35;;;;;;;3.10;1.57;;;9.80;99.90;;;;;;5069162;28;21262;-72
2023/10/15 02:48:10;;;;;;;5.10;1.57;;;9.70;99.90;;;;;;5070571;28;20429;-72
2023/10/15 02:50:36;;;;;;;6.20;1.30;;;9.70;99.90;;;;;;5070801;28;20776;-72
2023/10/15 02:53:05;;;;;;;10.33;1.50;;;9.70;99.90;;;;;;5070360;28;20424;-72
2023/10/15 02:55:39;;;;;;;7.37;1.60;;;9.80;99.90;;;;;;5070337;28;20296;-72
2023/10/15 02:58:05;;;;;;;10.03;1.43;;;9.90;99.90;;;;;;5070347;28;20422;-72
2023/10/15 03:00:35;;;;;;;5.97;1.57;;;9.90;99.90;;;;;;5070404;28;20899;-72
2023/10/15 03:03:08;;;;;;;9.40;2.03;;;9.90;99.90;;;;;;5068788;28;20448;-72
2023/10/15 03:05:42;;;;;;;5.47;1.70;;;10.00;99.90;;;;;;5052775;28;20445;-73
2023/10/15 03:08:12;;;;;;;6.00;1.40;;;10.00;99.90;;;;;;5068505;28;20481;-73
2023/10/15 03:10:46;;;;;;;9.47;1.57;;;10.00;99.90;;;;;;5069972;28;20541;-72
2023/10/15 03:13:15;;;;;;;5.43;1.87;;;9.90;99.90;;;;;;5070091;28;20414;-73
2023/10/15 03:15:50;;;;;;;6.63;1.60;;;9.90;99.90;;;;;;5069822;28;20483;-72
2023/10/15 03:18:23;;;;;;;7.20;1.37;;;9.90;99.90;;;;;;5069938;28;20453;-72
2023/10/15 03:20:49;;;;;;;5.30;1.20;;;10.00;99.90;;;;;;5069052;28;20427;-72
2023/10/15 03:23:18;;;;;;;8.93;1.30;;;10.00;99.90;;;;;;5069741;28;20506;-72
2023/10/15 03:25:48;;;;;;;9.60;1.63;;;10.00;99.90;;;;;;5069681;28;20804;-72
2023/10/15 03:28:13;;;;;;;5.07;1.47;;;10.00;99.90;;;;;;5069619;28;20509;-72
2023/10/15 03:30:44;;;;;;;10.63;1.40;;;9.90;99.90;;;;;;5069629;28;20519;-72
2023/10/15 03:33:13;;;;;;;6.70;1.37;;;10.00;99.90;;;;;;5068187;28;20503;-72
2023/10/15 03:35:39;;;;;;;4.83;1.37;;;9.90;99.90;;;;;;5067908;28;20437;-72
2023/10/15 03:38:13;;;;;;;5.73;1.60;;;10.00;99.90;;;;;;5069463;28;20917;-72
2023/10/15 03:40:50;;;;;;;5.27;1.60;;;10.00;99.90;;;;;;5069649;28;20972;-72
2023/10/15 03:43:20;;;;;;;5.90;1.63;;;9.90;99.90;;;;;;5069290;28;20462;-72
2023/10/15 03:45:52;;;;;;;3.63;1.23;;;9.90;99.90;;;;;;5051869;28;20457;-72
2023/10/15 03:48:21;;;;;;;7.57;1.53;;;10.10;99.90;;;;;;5069156;28;20444;-72
2023/10/15 03:50:53;;;;;;;4.47;1.27;;;9.90;99.90;;;;;;5069334;28;20412;-72
2023/10/15 03:53:21;;;;;;;12.70;2.13;;;9.90;99.90;;;;;;5069271;28;20413;-72
2023/10/15 03:55:49;;;;;;;3.47;1.63;;;9.90;99.90;;;;;;5069135;28;20474;-72
2023/10/15 03:58:18;;;;;;;2.97;1.17;;;9.90;99.90;;;;;;5067809;28;20512;-72
2023/10/15 04:00:46;;;;;;;6.73;1.53;;;10.00;99.90;;;;;;5069038;28;20424;-72
2023/10/15 04:03:22;;;;;;;11.03;1.77;;;10.00;99.90;;;;;;5069068;28;20447;-72
2023/10/15 04:06:06;;;;;;;11.23;1.63;;;10.00;99.90;;;;;;5069048;28;20515;-71
2023/10/15 04:08:33;;;;;;;6.73;1.20;;;10.10;99.90;;;;;;5069477;28;20536;-72
2023/10/15 04:10:59;;;;;;;5.53;1.40;;;10.10;99.90;;;;;;5069469;28;21011;-72
2023/10/15 04:13:26;;;;;;;5.80;1.00;;;10.10;99.90;;;;;;5069574;28;20181;-72
2023/10/15 04:15:54;;;;;;;4.50;1.53;;;10.00;99.90;;;;;;5069499;28;20432;-73
2023/10/15 04:18:22;;;;;;;5.97;1.60;;;9.90;99.90;;;;;;5069629;28;20522;-72
2023/10/15 04:20:49;;;;;;;4.60;0.80;;;9.80;99.90;;;;;;5069510;28;20506;-73
2023/10/15 04:23:30;;;;;;;9.37;1.17;;;9.80;99.90;;;;;;5069347;28;20477;-72
2023/10/15 04:26:00;;;;;;;5.43;1.23;;;9.90;99.90;;;;;;5067286;28;20571;-72
2023/10/15 04:28:27;;;;;;;5.70;1.13;;;9.90;99.90;;;;;;5068894;28;20402;-72
2023/10/15 04:30:53;;;;;;;4.90;0.80;;;10.00;99.90;;;;;;5068608;28;20906;-72
2023/10/15 04:33:20;;;;;;;12.03;1.50;;;10.00;99.90;;;;;;5068682;28;20506;-72
2023/10/15 04:35:49;;;;;;;5.40;1.33;;;10.10;99.90;;;;;;5067135;28;20465;-72
2023/10/15 04:38:21;;;;;;;7.27;1.50;;;10.10;99.90;;;;;;5068506;28;20426;-72
2023/10/15 04:43:24;;;;;;;6.43;1.73;;;10.10;99.90;;;;;;5068356;28;20428;-72
2023/10/15 04:45:50;;;;;;;2.90;1.10;;;10.10;99.90;;;;;;5050692;28;20457;-72
2023/10/15 04:48:16;;;;;;;7.33;1.53;;;10.10;99.90;;;;;;5067850;28;20415;-72
2023/10/15 04:50:45;;;;;;;8.13;1.50;;;10.10;99.90;;;;;;5067477;28;20787;-71
2023/10/15 04:53:12;;;;;;;4.60;1.60;;;10.10;99.90;;;;;;5068035;28;20471;-71
2023/10/15 04:55:46;;;;;;;6.07;1.67;;;10.10;99.90;;;;;;5067994;28;20447;-71
2023/10/15 04:58:12;;;;;;;2.80;1.40;;;10.10;99.90;;;;;;5068059;28;20472;-72
2023/10/15 05:00:43;;;;;;;8.17;1.93;;;10.20;99.90;;;;;;5068037;28;20429;-72
2023/10/15 05:03:09;;;;;;;18.60;1.80;;;10.20;99.90;;;;;;5068066;28;20422;-71
2023/10/15 05:05:35;;;;;;;13.83;2.40;;;10.30;99.90;;;;;;5066146;28;20449;-72
2023/10/15 05:08:01;;;;;;;6.70;1.30;;;10.20;99.90;;;;;;5068210;28;20183;-72
2023/10/15 05:10:32;;;;;;;9.57;1.70;;;10.30;99.90;;;;;;5066544;28;20537;-72
2023/10/15 05:12:59;;;;;;;5.63;1.43;;;10.20;99.90;;;;;;5068035;28;20653;-72
2023/10/15 05:15:25;;;;;;;6.63;1.20;;;10.30;99.90;;;;;;5066729;28;20564;-72
2023/10/15 05:17:50;;;;;;;8.57;0.83;;;10.30;99.90;;;;;;5068279;28;20499;-72
2023/10/15 05:20:16;;;;;;;4.80;1.17;;;10.30;99.90;;;;;;5068140;28;20893;-72
2023/10/15 05:22:42;;;;;;;4.60;1.10;;;10.30;99.90;;;;;;5067908;28;20203;-72
2023/10/15 05:25:20;;;;;;;4.93;1.30;;;10.20;99.90;;;;;;5067971;28;20198;-72
2023/10/15 05:27:50;;;;;;;3.70;1.63;;;10.20;99.90;;;;;;5068059;28;20508;-71
2023/10/15 05:30:16;;;;;;;3.70;1.60;;;10.10;99.90;;;;;;5068029;28;20798;-71
2023/10/15 05:32:43;;;;;;;10.30;2.30;;;9.90;99.90;;;;;;5067878;28;20433;-71
2023/10/15 05:35:10;;;;;;;10.00;1.53;;;9.80;99.90;;;;;;5067752;28;20188;-71
2023/10/15 05:37:36;;;;;;;3.23;1.20;;;9.50;99.90;;;;;;5067862;28;20453;-70
2023/10/15 05:40:08;;;;;;;6.90;2.03;;;9.40;99.90;;;;;;5067833;28;20428;-70
2023/10/15 05:42:37;;;;;;;2.67;1.40;;;9.20;99.90;;;;;;5067898;28;20485;-70
2023/10/15 05:45:06;;;;;;;4.50;1.50;;;9.10;99.90;;;;;;5071556;28;20427;-71
2023/10/15 05:47:33;;;;;;;10.20;1.80;;;9.10;99.90;;;;;;5071358;28;21247;-71
2023/10/15 05:49:58;;;;;;;4.20;1.90;;;9.00;99.90;;;;;;5071624;28;20419;-72
2023/10/15 05:52:25;;;;;;;10.53;2.00;;;8.90;99.90;;;;;;5070182;28;21276;-70
2023/10/15 05:54:53;;;;;;;4.63;1.50;;;8.90;99.90;;;;;;5070073;28;20193;-70
2023/10/15 05:57:21;;;;;;;6.23;2.10;;;8.90;99.90;;;;;;5071259;28;21143;-70
2023/10/15 05:59:48;;;;;;;9.73;1.80;;;8.90;99.90;;;;;;5069803;28;20559;-71
2023/10/15 06:02:13;;;;;;;9.90;2.30;;;8.80;99.90;;;;;;5069590;28;20450;-70
2023/10/15 06:04:39;;;;;;;9.37;1.90;;;8.70;99.90;;;;;;5071442;28;21039;-70
2023/10/15 06:07:05;;;;;;;5.17;1.70;;;8.90;99.90;;;;;;5071124;28;20219;-70
2023/10/15 06:09:31;;;;;;;2.80;1.67;;;8.90;99.90;;;;;;5071240;28;20183;-72
2023/10/15 06:11:57;;;;;;;4.13;1.87;;;8.90;99.90;;;;;;5071158;28;20418;-72
2023/10/15 06:14:23;;;;;;;16.47;1.77;;;9.00;99.90;;;;;;5071034;28;20414;-72
2023/10/15 06:16:52;;;;;;;4.07;1.97;;;9.00;99.90;;;;;;5070931;28;20241;-71
2023/10/15 06:19:18;;;;;;;4.63;1.70;;;9.10;99.90;;;;;;5053141;28;20901;-72
2023/10/15 06:21:44;;;;;;;3.60;1.43;;;9.10;99.90;;;;;;5070956;28;20435;-72
2023/10/15 06:24:10;;;;;;;7.07;1.90;;;9.10;99.90;;;;;;5071110;28;20418;-71
2023/10/15 06:26:37;;;;;;;9.33;2.63;;;9.10;99.90;;;;;;5069432;28;20480;-71
2023/10/15 06:29:03;;;;;;;7.83;2.00;;;9.10;99.90;;;;;;5070873;28;20433;-71
2023/10/15 06:31:31;;;;;;;5.03;1.60;;;9.10;99.90;;;;;;5070911;28;20427;-70
2023/10/15 06:33:57;;;;;;;8.70;1.40;;;9.10;99.90;;;;;;5071147;28;20423;-72
2023/10/15 06:36:23;;;;;;;5.13;1.63;;;9.10;99.90;;;;;;5069171;28;20995;-71
2023/10/15 06:38:51;;;;;;;4.10;1.70;;;9.10;99.90;;;;;;5070677;28;20769;-71
2023/10/15 06:41:17;;;;;;;3.63;1.70;;;9.10;99.90;;;;;;5070739;28;20180;-71
2023/10/15 06:43:43;;;;;;;5.30;1.30;;;9.10;99.90;;;;;;5070739;28;20713;-71
2023/10/15 06:46:08;;;;;;;9.80;2.23;;;9.10;99.90;;;;;;5070242;28;20248;-72
2023/10/15 06:48:35;;;;;;;7.10;1.60;;;9.20;99.90;;;;;;5070505;28;20270;-72
2023/10/15 06:51:07;;;;;;;5.80;1.20;;;9.20;99.90;;;;;;5070462;28;20187;-72
2023/10/15 06:53:34;;;;;;;8.20;1.37;;;9.20;99.90;;;;;;5070466;28;20570;-72
2023/10/15 06:56:00;;;;;;;4.33;1.73;;;9.20;99.90;;;;;;5067426;28;20448;-71
2023/10/15 06:58:28;;;;;;;8.90;1.40;;;9.30;99.90;;;;;;5070145;28;21062;-71
2023/10/15 07:00:55;;;;;;;6.53;1.73;;;9.30;99.90;;;;;;5069976;28;20556;-71
2023/10/15 07:03:21;;;;;;;7.77;1.20;;;9.20;99.90;;;;;;5068799;28;20521;-72
2023/10/15 07:05:47;;;;;;;6.17;1.50;;;9.30;99.90;;;;;;5069911;28;20537;-71
2023/10/15 07:08:12;;;;;;;3.80;1.90;;;9.30;99.90;;;;;;5070229;28;20189;-72
2023/10/15 07:10:39;;;;;;;6.73;1.67;;;9.30;99.90;;;;;;5068841;28;20643;-71
2023/10/15 07:13:04;;;;;;;14.13;2.10;;;9.30;99.90;;;;;;5070111;28;20780;-72
2023/10/15 07:15:30;;;;;;;5.50;1.17;;;9.40;99.90;;;;;;5069970;28;20546;-71
2023/10/15 07:17:55;;;;;;;5.20;1.43;;;9.40;99.90;;;;;;5070057;28;20259;-71
2023/10/15 07:20:24;;;;;;;4.53;1.40;;;9.40;99.90;;;;;;5068417;28;20184;-72
2023/10/15 07:22:50;;;;;;;4.17;1.43;;;9.40;99.90;;;;;;5051086;28;20670;-71
2023/10/15 07:25:18;;;;;;;5.93;1.47;;;9.50;99.90;;;;;;5068430;28;20414;-71
2023/10/15 07:27:48;;;;;;;2.53;1.10;;;9.40;99.90;;;;;;5066888;28;20475;-72
2023/10/15 07:30:16;;;;;;;3.53;1.10;;;9.50;99.90;;;;;;5067027;28;20428;-71
2023/10/15 07:32:43;;;;;;;6.17;1.20;;;9.50;99.90;;;;;;5068397;28;21058;-70
2023/10/15 07:35:13;;;;;;;5.60;1.77;;;9.50;99.90;;;;;;5068236;28;20435;-70
2023/10/15 07:37:40;;;;;;;3.27;1.00;;;9.50;99.90;;;;;;5068314;28;20415;-70
2023/10/15 07:40:14;;;;;;;1.90;0.80;;;9.50;99.90;;;;;;5068284;28;20530;-72
2023/10/15 07:42:40;;;;;;;3.57;1.47;;;9.50;99.90;;;;;;5067275;28;20481;-71
2023/10/15 07:45:06;;;;;;;3.33;1.60;;;9.50;99.90;;;;;;5067417;28;20424;-71
2023/10/15 07:47:31;;;;;;;3.17;1.23;;;9.60;99.90;;;;;;5067207;28;20222;-72
2023/10/15 07:49:57;;;;;;;3.20;1.40;;;9.60;99.90;;;;;;5068863;28;20251;-72
2023/10/15 07:52:24;;;;;;;3.37;1.10;;;9.70;99.90;;;;;;5067481;28;20268;-71
2023/10/15 07:54:50;;;;;;;5.87;1.33;;;9.70;99.90;;;;;;5068622;28;20555;-72
2023/10/15 07:57:16;;;;;;;5.10;1.23;;;9.70;99.90;;;;;;5068467;28;20453;-72
2023/10/15 07:59:42;;;;;;;3.63;1.43;;;9.70;99.90;;;;;;5068668;28;20427;-72
2023/10/15 08:02:08;;;;;;;5.73;1.40;;;9.50;99.90;;;;;;5067234;28;20594;-72
2023/10/15 08:04:36;;;;;;;3.70;1.40;;;9.70;99.90;;;;;;5067345;28;20434;-71
2023/10/15 08:07:02;;;;;;;5.77;1.37;;;9.80;99.90;;;;;;5050381;28;20231;-71
2023/10/15 08:09:29;;;;;;;4.70;1.53;;;9.80;99.90;;;;;;5068657;28;20794;-72
2023/10/15 08:11:55;;;;;;;7.93;1.40;;;10.00;99.90;;;;;;5067227;28;20180;-72
2023/10/15 08:14:21;;;;;;;4.10;1.60;;;10.00;99.90;;;;;;5068570;28;20423;-71
2023/10/15 08:16:47;;;;;;;8.73;1.50;;;9.90;99.90;;;;;;5068391;28;21266;-72
2023/10/15 08:19:12;;;;;;;3.57;1.63;;;10.00;99.90;;;;;;5067864;28;20184;-71
2023/10/15 08:21:38;;;;;;;6.20;2.00;;;10.10;99.90;;;;;;5068507;28;20662;-71
2023/10/15 08:24:04;;;;;;;3.30;1.23;;;10.20;99.90;;;;;;5067083;28;20645;-71
2023/10/15 08:26:30;;;;;;;5.77;1.80;;;10.40;99.90;;;;;;5068154;28;20698;-72
2023/10/15 08:28:55;;;;;;;5.87;1.67;;;10.50;99.90;;;;;;5068423;28;20501;-71
2023/10/15 08:31:21;;;;;;;3.83;1.57;;;10.60;99.90;;;;;;5068732;28;20221;-72
2023/10/15 08:33:46;;;;;;;6.40;1.20;;;10.80;99.90;;;;;;5068528;28;20181;-71
2023/10/15 08:36:12;;;;;;;12.03;2.00;;;10.90;99.90;;;;;;5068667;28;20215;-71
2023/10/15 08:38:37;;;;;;;5.07;1.83;;;11.00;99.90;;;;;;5067075;28;20199;-70
2023/10/15 08:41:08;;;;;;;7.23;1.37;;;11.00;99.90;;;;;;5068371;28;20196;-72
2023/10/15 08:43:34;;;;;;;6.20;1.63;;;11.10;99.90;;;;;;5068363;28;20190;-72
2023/10/15 08:46:01;;;;;;;4.93;1.40;;;11.10;99.90;;;;;;5066685;28;20979;-71
2023/10/15 08:48:28;;;;;;;4.60;1.50;;;11.10;99.90;;;;;;5067979;28;20508;-73
2023/10/15 08:50:57;;;;;;;3.33;1.40;;;11.10;99.90;;;;;;5068307;28;20421;-72
2023/10/15 08:53:27;;;;;;;3.57;1.30;;;11.10;99.90;;;;;;5068531;28;20443;-71
2023/10/15 08:55:57;;;;;;;5.20;1.60;;;11.00;99.90;;;;;;5068121;28;20444;-72
2023/10/15 08:58:25;;;;;;;5.20;1.43;;;11.00;99.90;;;;;;5066853;28;20430;-72
2023/10/15 09:00:57;;;;;;;5.10;1.60;;;11.30;99.90;;;;;;5066562;28;20474;-72
2023/10/15 09:03:23;;;;;;;4.77;1.50;;;12.00;99.90;;;;;;5068007;28;20444;-73
2023/10/15 09:05:52;;;;;;;5.50;1.43;;;12.90;99.90;;;;;;5066579;28;20498;-72
2023/10/15 09:08:19;;;;;;;3.90;1.40;;;13.10;99.90;;;;;;5066354;28;20501;-72
2023/10/15 09:10:44;;;;;;;7.77;1.90;;;12.80;99.90;;;;;;5067742;28;20405;-72
2023/10/15 09:13:14;;;;;;;4.77;1.27;;;14.30;99.90;;;;;;5066370;28;20452;-71
2023/10/15 09:15:43;;;;;;;2.93;1.10;;;15.10;99.90;;;;;;5067586;28;20237;-72
2023/10/15 09:18:15;;;;;;;5.57;1.30;;;16.00;99.90;;;;;;5068532;28;20829;-72
2023/10/15 09:20:43;;;;;;;5.03;1.60;;;15.10;99.90;;;;;;5070226;28;20410;-73
2023/10/15 09:23:09;;;;;;;4.00;1.20;;;14.60;99.90;;;;;;5071230;28;20775;-71
2023/10/15 09:25:36;;;;;;;6.33;1.67;;;14.40;99.90;;;;;;5071091;28;20425;-72
2023/10/15 09:28:01;;;;;;;3.10;1.50;;;14.80;99.90;;;;;;5071042;28;20472;-72
2023/10/15 09:30:30;;;;;;;7.27;1.60;;;15.60;99.90;;;;;;5071004;28;20976;-71
2023/10/15 09:32:59;;;;;;;5.57;1.37;;;15.10;99.90;;;;;;5073122;28;20178;-73
2023/10/15 09:35:25;;;;;;;7.80;1.33;;;15.90;99.90;;;;;;5071519;28;20422;-71
2023/10/15 09:37:53;;;;;;;6.67;1.47;;;15.60;99.90;;;;;;5070458;28;20418;-72
2023/10/15 09:40:31;;;;;;;3.00;1.20;;;15.40;99.90;;;;;;5070454;28;20426;-71
2023/10/15 09:42:57;;;;;;;4.03;1.23;;;15.00;99.90;;;;;;5070455;28;20418;-72
2023/10/15 09:45:23;;;;;;;4.50;1.37;;;14.40;99.90;;;;;;5070461;28;20409;-72
2023/10/15 09:48:00;;;;;;;7.03;2.00;;;13.90;99.90;;;;;;5072082;28;20469;-75
2023/10/15 09:50:28;;;;;;;4.90;1.30;;;13.50;99.90;;;;;;5071012;28;20417;-72
2023/10/15 09:53:01;;;;;;;5.13;1.53;;;13.00;99.90;;;;;;5071248;28;20429;-73
2023/10/15 09:55:31;;;;;;;5.27;1.17;;;12.60;99.90;;;;;;5070300;28;20879;-70
2023/10/15 09:58:01;;;;;;;4.47;1.33;;;12.30;99.90;;;;;;5070170;28;20426;-72
2023/10/15 10:00:59;;;;;;;2.27;1.20;;;12.00;99.90;;;;;;5070255;28;21225;-72
2023/10/15 10:03:57;;;;;;;1.47;1.03;;;11.70;99.90;;;;;;5070094;28;20432;-71
2023/10/15 10:06:41;;;;;;;2.00;1.20;;;11.60;99.90;;;;;;5069963;28;20510;-72
2023/10/15 10:09:21;;;;;;;8.13;1.13;;;11.60;99.90;;;;;;5068488;28;20499;-72
2023/10/15 10:12:05;;;;;;;2.23;1.20;;;11.60;99.90;;;;;;5069742;28;20413;-71
2023/10/15 10:15:01;;;;;;;2.13;1.03;;;11.70;99.90;;;;;;5069744;28;20419;-72
2023/10/15 10:17:29;;;;;;;5.23;1.10;;;12.30;99.90;;;;;;5069662;28;20495;-72
2023/10/15 10:19:55;;;;;;;7.17;1.80;;;12.70;99.90;;;;;;5069811;28;20505;-72
2023/10/15 10:22:24;;;;;;;2.70;1.03;;;13.10;99.90;;;;;;5068286;28;20845;-72
2023/10/15 10:24:50;;;;;;;6.77;2.10;;;13.00;99.90;;;;;;5069602;28;20413;-72
2023/10/15 10:27:16;;;;;;;6.57;1.67;;;13.40;99.90;;;;;;5067941;28;20473;-72
2023/10/15 10:29:43;;;;;;;3.73;1.40;;;13.50;99.90;;;;;;5069207;28;20908;-72
2023/10/15 10:32:13;;;;;;;4.00;1.00;;;14.80;99.90;;;;;;5069694;28;20914;-72
2023/10/15 10:34:39;;;;;;;3.33;1.13;;;15.50;99.90;;;;;;5069527;28;20409;-72
2023/10/15 10:37:19;;;;;;;6.13;1.57;;;15.20;99.90;;;;;;5067797;28;20458;-72
2023/10/15 10:39:45;;;;;;;4.70;1.47;;;14.50;99.90;;;;;;5069417;28;20414;-72
2023/10/15 10:42:26;;;;;;;4.13;1.40;;;13.90;99.90;;;;;;5067883;28;20413;-73
2023/10/15 10:44:58;;;;;;;5.73;1.80;;;13.50;99.90;;;;;;5069972;28;20186;-71
2023/10/15 10:47:28;;;;;;;5.37;1.47;;;13.10;99.90;;;;;;5069257;28;20469;-71
2023/10/15 10:50:00;;;;;;;3.27;1.10;;;13.00;99.90;;;;;;5069092;28;20500;-71
2023/10/15 10:52:36;;;;;;;4.53;1.30;;;12.80;99.90;;;;;;5069288;28;20466;-72
2023/10/15 10:55:30;;;;;;;2.70;0.80;;;12.70;99.90;;;;;;5069263;28;20412;-73
2023/10/15 10:57:56;;;;;;;6.20;1.67;;;12.60;99.90;;;;;;5067372;28;20429;-72
2023/10/15 11:00:22;;;;;;;3.90;1.00;;;12.50;99.90;;;;;;5068839;28;20499;-72
2023/10/15 11:02:48;;;;;;;2.83;1.07;;;12.50;99.90;;;;;;5068894;28;20198;-72
2023/10/15 11:05:16;;;;;;;2.90;0.97;;;12.50;99.90;;;;;;5068619;28;20256;-73
2023/10/15 11:07:42;;;;;;;2.70;1.50;;;12.80;99.90;;;;;;5067410;28;20550;-72
2023/10/15 11:10:09;;;;;;;5.90;1.60;;;12.90;99.90;;;;;;5068715;28;20441;-72
2023/10/15 11:12:35;;;;;;;2.40;0.90;;;13.00;99.90;;;;;;5068752;28;20179;-72
2023/10/15 11:15:01;;;;;;;4.20;1.40;;;12.90;99.90;;;;;;5068678;28;20409;-72
2023/10/15 11:17:27;;;;;;;1.87;1.03;;;13.10;99.90;;;;;;5068661;28;20490;-72
2023/10/15 11:19:52;;;;;;;7.13;1.30;;;13.80;99.90;;;;;;5068364;28;20430;-72
2023/10/15 11:22:19;;;;;;;2.70;1.00;;;14.40;99.90;;;;;;5068423;28;20179;-73
2023/10/15 11:24:44;;;;;;;2.90;1.20;;;14.70;99.90;;;;;;5068443;28;20428;-72
2023/10/15 11:27:12;;;;;;;4.67;1.00;;;14.40;99.90;;;;;;5050498;28;20227;-73
2023/10/15 11:29:38;;;;;;;4.10;1.30;;;14.00;99.90;;;;;;5068344;28;20649;-72
2023/10/15 11:32:06;;;;;;;3.07;0.90;;;13.20;99.90;;;;;;5068274;28;20982;-73
2023/10/15 11:34:35;;;;;;;4.20;1.47;;;13.10;99.90;;;;;;5068045;28;20793;-73
2023/10/15 11:37:01;;;;;;;3.33;1.73;;;13.20;99.90;;;;;;5068236;28;20540;-72
2023/10/15 11:39:37;;;;;;;3.73;1.10;;;13.40;99.90;;;;;;5068105;28;21125;-72
2023/10/15 11:42:14;;;;;;;4.00;1.03;;;13.60;99.90;;;;;;5067609;28;20417;-72
2023/10/15 11:44:44;;;;;;;2.30;1.67;;;13.10;99.90;;;;;;5066676;28;20413;-72
2023/10/15 11:47:16;;;;;;;3.27;1.27;;;12.90;99.90;;;;;;5066459;28;20481;-72
2023/10/15 11:49:42;;;;;;;2.00;0.97;;;12.90;99.90;;;;;;5067923;28;20411;-72
2023/10/15 11:52:12;;;;;;;3.03;1.43;;;13.00;99.90;;;;;;5067982;28;20417;-73
2023/10/15 11:54:43;;;;;;;2.20;0.80;;;13.10;99.90;;;;;;5067915;28;20423;-72
2023/10/15 11:57:18;;;;;;;2.10;1.10;;;13.40;99.90;;;;;;5066558;28;20459;-71
2023/10/15 11:59:45;;;;;;;6.03;1.40;;;13.50;99.90;;;;;;5067828;28;20421;-71
2023/10/15 12:02:14;;;;;;;2.60;1.07;;;13.60;99.90;;;;;;5067737;28;20474;-71
2023/10/15 12:04:40;;;;;;;3.10;1.60;;;13.70;99.90;;;;;;5067976;28;20427;-71
2023/10/15 12:07:06;;;;;;;3.67;0.80;;;13.90;99.90;;;;;;5066255;28;20469;-71
2023/10/15 12:09:32;;;;;;;2.60;0.97;;;14.10;99.90;;;;;;5067777;28;20221;-71
2023/10/15 12:11:59;;;;;;;6.50;1.47;;;14.20;99.90;;;;;;5049547;28;20454;-72
2023/10/15 12:14:24;;;;;;;2.20;1.10;;;14.10;99.90;;;;;;5067638;28;20170;-71
2023/10/15 12:16:50;;;;;;;3.93;1.00;;;13.70;99.90;;;;;;5067877;28;20440;-71
2023/10/15 12:19:17;;;;;;;3.43;1.03;;;13.30;99.90;;;;;;5067841;28;20195;-71
2023/10/15 12:21:43;;;;;;;3.43;1.43;;;13.00;99.90;;;;;;5066446;28;20229;-71
2023/10/15 12:24:09;;;;;;;6.80;1.27;;;12.60;99.90;;;;;;5067532;28;20422;-71
2023/10/15 12:26:35;;;;;;;4.23;1.00;;;12.30;99.90;;;;;;5067551;28;20490;-71
2023/10/15 12:29:03;;;;;;;3.20;0.90;;;12.20;99.90;;;;;;5067376;28;20409;-71
2023/10/15 12:31:30;;;;;;;5.00;0.83;;;12.10;99.90;;;;;;5067744;28;20445;-71
2023/10/15 12:33:56;;;;;;;2.00;0.97;;;12.10;99.90;;;;;;5067693;28;20409;-71
2023/10/15 12:36:22;;;;;;;4.20;1.17;;;12.10;99.90;;;;;;5066318;28;21324;-70
2023/10/15 12:38:48;;;;;;;6.33;1.37;;;12.10;99.90;;;;;;5066266;28;20453;-71
2023/10/15 12:41:14;;;;;;;3.50;2.17;;;12.10;99.90;;;;;;5067629;28;20837;-72
2023/10/15 12:43:40;;;;;;;4.07;1.17;;;12.20;99.90;;;;;;5065885;28;20424;-72
2023/10/15 12:46:07;;;;;;;2.00;0.93;;;12.10;99.90;;;;;;5067717;28;20209;-72
2023/10/15 12:48:32;;;;;;;1.83;0.70;;;12.00;99.90;;;;;;5067630;28;20930;-73
2023/10/15 12:50:58;;;;;;;1.40;0.70;;;11.90;99.90;;;;;;5067505;28;20468;-72
2023/10/15 12:53:25;;;;;;;3.37;0.80;;;11.80;99.90;;;;;;5067530;28;20703;-73
2023/10/15 12:55:51;;;;;;;2.90;1.10;;;11.60;99.90;;;;;;5067701;28;20944;-73
2023/10/15 12:58:17;;;;;;;2.43;0.93;;;11.50;99.90;;;;;;5067665;28;20428;-72
2023/10/15 13:00:43;;;;;;;9.70;2.30;;;11.40;99.90;;;;;;5067587;28;20421;-72
2023/10/15 13:03:10;;;;;;;2.50;0.93;;;11.30;99.90;;;;;;5067652;28;20175;-72
2023/10/15 13:05:36;;;;;;;2.40;0.80;;;11.40;99.90;;;;;;5067515;28;20456;-72
2023/10/15 13:08:03;;;;;;;2.47;1.10;;;11.60;99.90;;;;;;5065592;28;20983;-72
2023/10/15 13:10:29;;;;;;;4.87;0.90;;;11.70;99.90;;;;;;5067243;28;20419;-71
2023/10/15 13:12:55;;;;;;;3.00;0.90;;;11.70;99.90;;;;;;5067152;28;20413;-72
2023/10/15 13:15:21;;;;;;;4.07;1.33;;;11.70;99.90;;;;;;5065631;28;20280;-71